Time;durP1;ratioP1;P1;durP2;ratioP2;P2;SDS_P1;SDS_P2;PMS_P1;PMS_P2;Temp;Humidity;BMP_temperature;BMP_pressure;BME280_temperature;BME280_humidity;BME280_pressure;Samples;Min_cycle;Max_cycle;Signal;HPM_P1;HPM_P2
2021/10/31 00:01:02;;;;;;;8.07;7.22;;;;;;;;;;5040478;28;20036;-89
2021/10/31 00:03:28;;;;;;;8.73;6.95;;;;;;;;;;5025751;28;20056;-89
2021/10/31 00:05:54;;;;;;;9.98;7.22;;;;;;;;;;5047369;28;20072;-89
2021/10/31 00:08:21;;;;;;;9.05;7.15;;;;;;;;;;5045766;28;20237;-89
2021/10/31 00:10:49;;;;;;;10.73;7.45;;;;;;;;;;5042163;28;20149;-88
2021/10/31 00:13:15;;;;;;;9.77;6.70;;;;;;;;;;5029102;28;20075;-89
2021/10/31 00:15:42;;;;;;;8.45;7.10;;;;;;;;;;5040670;28;20037;-89
2021/10/31 00:18:08;;;;;;;9.98;7.32;;;;;;;;;;5045833;28;20458;-89
2021/10/31 00:20:35;;;;;;;9.52;7.43;;;;;;;;;;5055571;28;20393;-89
2021/10/31 00:23:02;;;;;;;8.05;6.80;;;;;;;;;;5040456;28;20057;-89
2021/10/31 00:25:28;;;;;;;8.68;6.68;;;;;;;;;;5044322;28;20076;-86
2021/10/31 00:27:55;;;;;;;9.25;7.57;;;;;;;;;;5042813;28;20033;-89
2021/10/31 00:30:21;;;;;;;9.07;6.97;;;;;;;;;;5046997;28;20060;-90
2021/10/31 00:32:47;;;;;;;8.38;6.60;;;;;;;;;;5045994;28;21233;-90
2021/10/31 00:35:14;;;;;;;9.45;6.82;;;;;;;;;;5048564;28;20103;-89
2021/10/31 00:37:40;;;;;;;9.43;7.25;;;;;;;;;;5047225;28;20053;-90
2021/10/31 00:40:07;;;;;;;9.02;7.60;;;;;;;;;;5042956;28;20036;-89
2021/10/31 00:42:33;;;;;;;8.93;7.30;;;;;;;;;;5049254;28;20040;-91
2021/10/31 00:45:00;;;;;;;8.73;7.07;;;;;;;;;;5051148;28;20033;-89
2021/10/31 00:47:26;;;;;;;9.77;6.88;;;;;;;;;;5037308;28;20039;-90
2021/10/31 00:49:53;;;;;;;9.88;7.30;;;;;;;;;;5050031;28;20079;-90
2021/10/31 00:52:19;;;;;;;10.00;7.10;;;;;;;;;;5048807;28;20029;-88
2021/10/31 00:54:45;;;;;;;8.32;6.80;;;;;;;;;;5045688;28;20488;-89
2021/10/31 00:57:12;;;;;;;8.90;7.20;;;;;;;;;;5046717;28;20052;-89
2021/10/31 00:59:38;;;;;;;10.25;7.63;;;;;;;;;;5044258;28;20115;-90
2021/10/31 01:02:10;;;;;;;9.10;7.15;;;;;;;;;;5048211;28;20662;-90
2021/10/31 01:04:37;;;;;;;10.10;8.13;;;;;;;;;;5047397;28;20068;-89
2021/10/31 01:07:10;;;;;;;10.27;7.90;;;;;;;;;;5045457;28;20033;-90
2021/10/31 01:09:39;;;;;;;9.98;6.80;;;;;;;;;;5029014;28;20091;-89
2021/10/31 01:12:06;;;;;;;8.25;6.63;;;;;;;;;;5049416;28;20124;-89
2021/10/31 01:14:51;;;;;;;10.00;7.28;;;;;;;;;;5031569;28;20055;-90
2021/10/31 01:17:17;;;;;;;8.35;6.88;;;;;;;;;;5041036;28;20036;-90
2021/10/31 01:20:06;;;;;;;8.88;7.20;;;;;;;;;;5042035;28;20063;-91
2021/10/31 01:22:44;;;;;;;8.93;7.60;;;;;;;;;;5042746;28;20495;-89
2021/10/31 01:25:13;;;;;;;8.65;6.85;;;;;;;;;;5041595;28;20061;-90
2021/10/31 01:27:49;;;;;;;8.32;7.30;;;;;;;;;;5039794;28;20095;-90
2021/10/31 01:30:29;;;;;;;8.93;7.43;;;;;;;;;;5040536;28;20025;-90
2021/10/31 01:32:56;;;;;;;11.07;7.95;;;;;;;;;;5038438;28;20223;-90
2021/10/31 01:35:41;;;;;;;9.32;7.20;;;;;;;;;;5042096;28;20029;-83
2021/10/31 01:38:09;;;;;;;8.38;7.07;;;;;;;;;;5049216;28;20155;-91
2021/10/31 01:40:36;;;;;;;8.45;6.80;;;;;;;;;;5044500;28;20034;-90
2021/10/31 01:43:05;;;;;;;8.57;6.72;;;;;;;;;;5040565;28;20503;-90
2021/10/31 01:45:44;;;;;;;10.27;7.65;;;;;;;;;;5042414;28;20543;-91
2021/10/31 01:48:19;;;;;;;10.68;7.05;;;;;;;;;;5028669;28;20114;-90
2021/10/31 01:50:48;;;;;;;9.77;7.50;;;;;;;;;;5035186;28;20076;-90
2021/10/31 01:53:35;;;;;;;10.18;7.40;;;;;;;;;;5065149;28;20122;-91
2021/10/31 01:56:14;;;;;;;8.82;7.40;;;;;;;;;;5046228;28;20445;-90
2021/10/31 01:58:44;;;;;;;9.60;7.47;;;;;;;;;;5035992;28;20484;-90
2021/10/31 02:01:13;;;;;;;10.25;7.50;;;;;;;;;;5042487;28;20601;-91
2021/10/31 02:03:39;;;;;;;11.07;7.40;;;;;;;;;;5045543;28;20025;-90
2021/10/31 02:06:06;;;;;;;9.05;7.55;;;;;;;;;;5044811;28;20099;-90
2021/10/31 02:08:34;;;;;;;9.95;7.53;;;;;;;;;;5034502;28;20056;-89
2021/10/31 02:11:02;;;;;;;9.45;7.70;;;;;;;;;;5041187;28;20104;-91
2021/10/31 02:13:30;;;;;;;8.18;6.90;;;;;;;;;;5049972;28;20029;-88
2021/10/31 02:15:56;;;;;;;9.75;7.40;;;;;;;;;;5055289;28;20025;-89
2021/10/31 02:18:24;;;;;;;8.63;7.50;;;;;;;;;;5050089;28;20041;-82
2021/10/31 02:20:52;;;;;;;8.85;7.32;;;;;;;;;;5020507;28;20084;-91
2021/10/31 02:23:19;;;;;;;9.73;7.55;;;;;;;;;;5045929;28;20489;-90
2021/10/31 02:25:46;;;;;;;10.40;7.65;;;;;;;;;;5045825;28;20069;-90
2021/10/31 02:28:12;;;;;;;10.18;7.65;;;;;;;;;;5053527;28;20079;-90
2021/10/31 02:30:39;;;;;;;10.32;7.90;;;;;;;;;;5051293;28;20530;-90
2021/10/31 02:33:05;;;;;;;9.05;7.40;;;;;;;;;;5030838;28;20106;-90
2021/10/31 02:35:31;;;;;;;9.20;7.53;;;;;;;;;;5044251;28;20037;-89
2021/10/31 02:37:58;;;;;;;9.10;7.40;;;;;;;;;;5051542;28;20527;-90
2021/10/31 02:40:25;;;;;;;10.23;7.15;;;;;;;;;;5044915;28;20040;-89
2021/10/31 02:42:51;;;;;;;9.82;7.72;;;;;;;;;;5048065;28;20051;-90
2021/10/31 02:45:19;;;;;;;8.63;6.88;;;;;;;;;;5045727;28;20076;-89
2021/10/31 02:47:51;;;;;;;9.10;7.68;;;;;;;;;;5047819;28;20029;-89
2021/10/31 02:50:20;;;;;;;9.90;7.63;;;;;;;;;;5052407;28;20446;-90
2021/10/31 02:52:56;;;;;;;8.35;7.22;;;;;;;;;;5012199;28;20471;-90
2021/10/31 02:55:25;;;;;;;9.45;7.53;;;;;;;;;;5035611;28;20053;-89
2021/10/31 02:58:00;;;;;;;10.02;7.43;;;;;;;;;;5052718;28;21335;-89
2021/10/31 03:00:29;;;;;;;9.63;7.63;;;;;;;;;;5048895;28;20029;-89
2021/10/31 03:02:56;;;;;;;9.65;7.60;;;;;;;;;;5043717;28;20033;-90
2021/10/31 03:05:23;;;;;;;10.07;8.07;;;;;;;;;;5051561;28;20122;-90
2021/10/31 03:07:50;;;;;;;9.18;7.45;;;;;;;;;;5052201;28;20078;-90
2021/10/31 03:10:17;;;;;;;10.30;7.53;;;;;;;;;;5050034;28;20075;-90
2021/10/31 03:12:45;;;;;;;10.00;7.65;;;;;;;;;;5060847;28;20033;-90
2021/10/31 03:15:11;;;;;;;10.43;7.53;;;;;;;;;;5053089;28;20024;-89
2021/10/31 03:17:38;;;;;;;10.20;7.05;;;;;;;;;;5028853;28;20029;-88
2021/10/31 03:20:05;;;;;;;9.27;7.55;;;;;;;;;;5049300;28;20043;-90
2021/10/31 03:22:32;;;;;;;8.82;7.60;;;;;;;;;;5036811;28;20055;-89
2021/10/31 03:24:58;;;;;;;9.52;7.50;;;;;;;;;;5041505;28;20107;-91
2021/10/31 03:27:25;;;;;;;8.73;6.72;;;;;;;;;;5042231;28;20049;-90
2021/10/31 03:29:51;;;;;;;9.30;7.68;;;;;;;;;;5045577;28;20029;-90
2021/10/31 03:32:18;;;;;;;9.73;7.75;;;;;;;;;;5029500;28;20354;-90
2021/10/31 03:34:44;;;;;;;9.52;7.43;;;;;;;;;;5042541;28;20049;-89
2021/10/31 03:37:11;;;;;;;9.85;7.43;;;;;;;;;;5042667;28;20029;-89
2021/10/31 03:39:37;;;;;;;10.20;8.07;;;;;;;;;;5046410;28;20388;-90
2021/10/31 03:42:05;;;;;;;9.35;7.15;;;;;;;;;;5051903;28;20025;-90
2021/10/31 03:44:35;;;;;;;10.10;7.80;;;;;;;;;;5049506;28;20033;-89
2021/10/31 03:47:03;;;;;;;9.43;7.57;;;;;;;;;;5029512;28;20086;-91
2021/10/31 03:49:29;;;;;;;9.25;7.82;;;;;;;;;;5042908;28;20021;-88
2021/10/31 03:51:56;;;;;;;9.95;8.00;;;;;;;;;;5042223;28;20033;-89
2021/10/31 03:54:22;;;;;;;10.30;7.10;;;;;;;;;;5026415;28;20053;-88
2021/10/31 03:56:48;;;;;;;9.35;7.50;;;;;;;;;;5043959;28;20673;-90
2021/10/31 03:59:15;;;;;;;9.43;7.10;;;;;;;;;;5049705;28;20036;-91
2021/10/31 04:01:41;;;;;;;9.05;7.55;;;;;;;;;;5052265;28;20048;-89
2021/10/31 04:04:09;;;;;;;9.65;7.50;;;;;;;;;;5040788;28;20030;-89
2021/10/31 04:06:35;;;;;;;10.10;7.15;;;;;;;;;;5030913;28;20070;-89
2021/10/31 04:09:02;;;;;;;10.48;7.85;;;;;;;;;;5049007;28;20029;-88
2021/10/31 04:11:28;;;;;;;10.38;7.97;;;;;;;;;;5013126;28;20492;-89
2021/10/31 04:13:54;;;;;;;9.73;7.82;;;;;;;;;;5047830;28;20048;-88
2021/10/31 04:16:21;;;;;;;10.68;7.22;;;;;;;;;;5049400;28;20060;-89
2021/10/31 04:18:47;;;;;;;11.60;8.05;;;;;;;;;;5043046;28;20471;-90
2021/10/31 04:21:14;;;;;;;10.45;7.88;;;;;;;;;;5042535;28;20041;-91
2021/10/31 04:23:41;;;;;;;8.70;7.10;;;;;;;;;;5044612;28;20063;-89
2021/10/31 04:26:07;;;;;;;10.40;7.53;;;;;;;;;;5028763;28;20057;-89
2021/10/31 04:28:34;;;;;;;10.75;7.63;;;;;;;;;;5050151;28;20511;-89
2021/10/31 04:31:00;;;;;;;9.73;7.63;;;;;;;;;;5044501;28;20053;-88
2021/10/31 04:33:26;;;;;;;11.27;8.13;;;;;;;;;;5046951;28;20544;-89
2021/10/31 04:35:53;;;;;;;8.93;7.35;;;;;;;;;;5037348;28;20064;-88
2021/10/31 04:38:23;;;;;;;9.45;7.53;;;;;;;;;;5046116;28;20030;-90
2021/10/31 04:40:49;;;;;;;8.63;7.20;;;;;;;;;;5057282;28;20446;-89
2021/10/31 04:43:16;;;;;;;10.38;7.20;;;;;;;;;;5042598;28;20095;-88
2021/10/31 04:45:43;;;;;;;11.32;7.95;;;;;;;;;;5038609;28;20071;-88
2021/10/31 04:48:11;;;;;;;10.40;7.15;;;;;;;;;;5027619;28;20049;-89
2021/10/31 04:50:37;;;;;;;10.20;7.13;;;;;;;;;;5047326;28;20400;-89
2021/10/31 04:53:05;;;;;;;9.93;7.28;;;;;;;;;;5038963;28;20048;-90
2021/10/31 04:55:39;;;;;;;8.52;6.57;;;;;;;;;;5039451;28;20128;-89
2021/10/31 04:58:05;;;;;;;10.13;7.18;;;;;;;;;;5045054;28;20033;-90
2021/10/31 05:00:32;;;;;;;10.02;7.53;;;;;;;;;;5035799;28;20107;-89
2021/10/31 05:02:59;;;;;;;9.50;7.57;;;;;;;;;;5040907;28;20041;-89
2021/10/31 05:05:25;;;;;;;9.55;7.47;;;;;;;;;;5017531;28;20052;-91
2021/10/31 05:07:55;;;;;;;10.63;7.65;;;;;;;;;;5044566;28;20040;-90
2021/10/31 05:10:22;;;;;;;8.85;7.15;;;;;;;;;;5035974;28;20025;-89
2021/10/31 05:12:49;;;;;;;8.82;7.00;;;;;;;;;;5041000;28;20756;-89
2021/10/31 05:15:16;;;;;;;8.70;7.20;;;;;;;;;;5043649;28;20033;-90
2021/10/31 05:17:43;;;;;;;9.88;6.97;;;;;;;;;;5030460;28;20053;-89
2021/10/31 05:20:11;;;;;;;9.10;6.78;;;;;;;;;;5041136;28;20060;-89
2021/10/31 05:22:38;;;;;;;8.88;7.05;;;;;;;;;;5040746;28;20094;-89
2021/10/31 05:25:05;;;;;;;9.10;6.68;;;;;;;;;;5032271;28;20071;-90
2021/10/31 05:27:31;;;;;;;10.80;7.47;;;;;;;;;;5038418;28;20029;-89
2021/10/31 05:29:58;;;;;;;9.68;7.05;;;;;;;;;;5037259;28;20034;-88
2021/10/31 05:32:31;;;;;;;9.82;6.50;;;;;;;;;;5023816;28;20090;-80
2021/10/31 05:34:57;;;;;;;9.80;7.40;;;;;;;;;;5059034;28;20041;-90
2021/10/31 05:37:30;;;;;;;9.25;7.32;;;;;;;;;;5041571;28;20041;-89
2021/10/31 05:39:57;;;;;;;8.40;6.43;;;;;;;;;;5041507;28;20079;-89
2021/10/31 05:42:27;;;;;;;8.75;7.05;;;;;;;;;;5038126;28;20033;-89
2021/10/31 05:44:56;;;;;;;8.85;6.43;;;;;;;;;;5014281;28;20036;-90
2021/10/31 05:47:22;;;;;;;10.40;7.32;;;;;;;;;;5043348;28;20099;-88
2021/10/31 05:49:49;;;;;;;8.63;6.40;;;;;;;;;;5033056;28;20029;-88
2021/10/31 05:52:15;;;;;;;9.38;6.80;;;;;;;;;;5043164;28;20112;-89
2021/10/31 05:54:42;;;;;;;9.60;6.63;;;;;;;;;;5049016;28;20056;-88
2021/10/31 05:57:09;;;;;;;8.98;6.57;;;;;;;;;;5044498;28;20134;-88
2021/10/31 05:59:35;;;;;;;9.38;6.78;;;;;;;;;;5045846;28;20060;-89
2021/10/31 06:02:02;;;;;;;7.88;6.35;;;;;;;;;;5024641;28;20061;-88
2021/10/31 06:04:29;;;;;;;8.85;7.15;;;;;;;;;;5045450;28;20065;-90
2021/10/31 06:06:56;;;;;;;8.88;6.47;;;;;;;;;;5039142;28;20064;-89
2021/10/31 06:09:22;;;;;;;8.60;5.85;;;;;;;;;;5047600;28;20423;-90
2021/10/31 06:11:49;;;;;;;9.20;6.47;;;;;;;;;;5038645;28;20069;-88
2021/10/31 06:14:15;;;;;;;7.53;6.05;;;;;;;;;;5055065;28;20034;-88
2021/10/31 06:16:42;;;;;;;8.52;6.40;;;;;;;;;;5039833;28;20547;-88
2021/10/31 06:19:08;;;;;;;7.88;5.78;;;;;;;;;;5041380;28;20072;-88
2021/10/31 06:21:34;;;;;;;7.88;6.40;;;;;;;;;;5041359;28;20164;-88
2021/10/31 06:24:01;;;;;;;7.75;6.18;;;;;;;;;;5047930;28;20063;-91
2021/10/31 06:26:27;;;;;;;8.15;6.07;;;;;;;;;;5023203;28;20065;-88
2021/10/31 06:28:54;;;;;;;8.00;5.95;;;;;;;;;;5032813;28;20783;-89
2021/10/31 06:31:20;;;;;;;9.23;6.13;;;;;;;;;;5035748;28;20063;-89
2021/10/31 06:33:46;;;;;;;8.40;5.90;;;;;;;;;;5046266;28;20025;-89
2021/10/31 06:36:13;;;;;;;8.05;5.50;;;;;;;;;;5047558;28;20033;-88
2021/10/31 06:38:39;;;;;;;8.32;6.07;;;;;;;;;;5045279;28;20072;-89
2021/10/31 06:41:07;;;;;;;8.32;6.05;;;;;;;;;;5046144;28;20033;-90
2021/10/31 06:43:35;;;;;;;9.02;6.00;;;;;;;;;;5041733;28;20041;-88
2021/10/31 06:46:02;;;;;;;7.07;5.40;;;;;;;;;;5046312;28;20586;-90
2021/10/31 06:48:29;;;;;;;7.63;5.82;;;;;;;;;;5048741;28;20033;-89
2021/10/31 06:50:56;;;;;;;7.65;5.43;;;;;;;;;;5048469;28;20098;-90
2021/10/31 06:53:23;;;;;;;8.07;5.82;;;;;;;;;;5049433;28;20033;-90
2021/10/31 06:55:49;;;;;;;8.90;5.68;;;;;;;;;;5029340;28;20081;-88
2021/10/31 06:58:16;;;;;;;7.75;5.47;;;;;;;;;;5042074;28;20080;-90
2021/10/31 07:00:42;;;;;;;7.88;5.38;;;;;;;;;;5028610;28;20067;-90
2021/10/31 07:03:09;;;;;;;6.50;5.20;;;;;;;;;;5048304;28;20030;-89
2021/10/31 07:05:35;;;;;;;7.97;5.03;;;;;;;;;;5051406;28;20076;-90
2021/10/31 07:08:02;;;;;;;7.25;5.32;;;;;;;;;;5043597;28;20044;-89
2021/10/31 07:10:28;;;;;;;6.78;5.40;;;;;;;;;;5046804;28;20067;-90
2021/10/31 07:12:55;;;;;;;7.00;4.82;;;;;;;;;;5040094;28;20034;-90
2021/10/31 07:15:21;;;;;;;6.18;4.65;;;;;;;;;;5028116;28;20040;-88
2021/10/31 07:17:48;;;;;;;7.32;5.20;;;;;;;;;;5023060;28;20476;-88
2021/10/31 07:20:15;;;;;;;6.90;5.07;;;;;;;;;;5026470;28;20033;-90
2021/10/31 07:22:42;;;;;;;6.15;4.88;;;;;;;;;;5042530;28;20064;-89
2021/10/31 07:25:09;;;;;;;6.53;4.82;;;;;;;;;;5047017;28;20033;-89
2021/10/31 07:27:36;;;;;;;6.38;5.32;;;;;;;;;;5007912;28;20064;-90
2021/10/31 07:30:03;;;;;;;6.47;4.82;;;;;;;;;;5032960;28;20037;-88
2021/10/31 07:32:30;;;;;;;6.85;4.60;;;;;;;;;;5044453;28;20045;-90
2021/10/31 07:34:56;;;;;;;7.32;4.78;;;;;;;;;;5048556;28;20041;-89
2021/10/31 07:37:22;;;;;;;7.40;4.68;;;;;;;;;;5047792;28;20041;-89
2021/10/31 07:39:52;;;;;;;6.10;4.65;;;;;;;;;;5046778;28;20036;-90
2021/10/31 07:42:18;;;;;;;6.60;4.93;;;;;;;;;;5047864;28;20416;-89
2021/10/31 07:44:48;;;;;;;5.47;4.53;;;;;;;;;;5045368;28;21883;-90
2021/10/31 07:47:15;;;;;;;5.53;4.55;;;;;;;;;;5051551;28;20513;-89
2021/10/31 07:49:42;;;;;;;5.68;4.50;;;;;;;;;;5042490;28;20029;-89
2021/10/31 07:52:08;;;;;;;6.18;4.60;;;;;;;;;;5048556;28;20036;-88
2021/10/31 07:54:35;;;;;;;5.93;4.55;;;;;;;;;;5022025;28;20044;-89
2021/10/31 07:57:02;;;;;;;6.07;4.32;;;;;;;;;;5044954;28;20057;-88
2021/10/31 07:59:28;;;;;;;5.72;4.05;;;;;;;;;;5046818;28;20201;-90
2021/10/31 08:01:55;;;;;;;6.55;4.22;;;;;;;;;;5026431;28;20056;-88
2021/10/31 08:04:22;;;;;;;5.07;3.72;;;;;;;;;;5041688;28;20029;-88
2021/10/31 08:06:49;;;;;;;5.05;4.25;;;;;;;;;;5047539;28;20838;-89
2021/10/31 08:09:16;;;;;;;6.25;3.95;;;;;;;;;;5038119;28;20029;-90
2021/10/31 08:11:43;;;;;;;5.65;3.95;;;;;;;;;;5045615;28;20404;-89
2021/10/31 08:14:10;;;;;;;7.07;4.47;;;;;;;;;;5044819;28;20031;-90
2021/10/31 08:16:37;;;;;;;5.97;4.03;;;;;;;;;;5019447;28;20459;-88
2021/10/31 08:19:05;;;;;;;6.05;3.90;;;;;;;;;;5046935;28;20056;-89
2021/10/31 08:21:31;;;;;;;4.82;3.35;;;;;;;;;;5027700;28;20056;-89
2021/10/31 08:23:58;;;;;;;6.03;4.50;;;;;;;;;;5046769;28;20032;-89
2021/10/31 08:26:25;;;;;;;5.38;3.60;;;;;;;;;;5027969;28;20057;-89
2021/10/31 08:28:52;;;;;;;5.75;3.95;;;;;;;;;;5040587;28;20071;-89
2021/10/31 08:31:24;;;;;;;5.40;3.60;;;;;;;;;;5047771;28;20435;-88
2021/10/31 08:33:56;;;;;;;4.70;3.60;;;;;;;;;;5033044;28;20554;-88
2021/10/31 08:36:22;;;;;;;4.82;3.80;;;;;;;;;;5035800;28;20498;-88
2021/10/31 08:38:49;;;;;;;4.95;3.50;;;;;;;;;;5035347;28;20041;-88
2021/10/31 08:41:18;;;;;;;5.03;3.60;;;;;;;;;;5048784;28;20029;-89
2021/10/31 08:43:44;;;;;;;5.03;3.65;;;;;;;;;;5040360;28;20504;-89
2021/10/31 08:46:12;;;;;;;4.57;3.47;;;;;;;;;;5043844;28;20421;-88
2021/10/31 08:48:39;;;;;;;4.60;3.55;;;;;;;;;;5044984;28;20034;-88
2021/10/31 08:51:06;;;;;;;5.65;3.42;;;;;;;;;;5049076;28;20508;-89
2021/10/31 08:53:33;;;;;;;5.97;3.45;;;;;;;;;;5048219;28;20468;-88
2021/10/31 08:55:59;;;;;;;4.30;3.10;;;;;;;;;;5048708;28;20158;-90
2021/10/31 08:58:26;;;;;;;5.43;3.35;;;;;;;;;;5029268;28;20064;-87
2021/10/31 09:00:53;;;;;;;5.47;3.35;;;;;;;;;;5034833;28;20044;-90
2021/10/31 09:03:19;;;;;;;4.63;3.25;;;;;;;;;;5040003;28;20028;-89
2021/10/31 09:05:46;;;;;;;4.63;3.58;;;;;;;;;;5040514;28;20064;-88
2021/10/31 09:08:12;;;;;;;5.40;3.50;;;;;;;;;;5043001;28;20036;-89
2021/10/31 09:10:40;;;;;;;3.95;3.08;;;;;;;;;;5033834;28;20056;-89
2021/10/31 09:13:06;;;;;;;5.18;3.20;;;;;;;;;;5048948;28;20053;-89
2021/10/31 09:15:33;;;;;;;4.85;3.33;;;;;;;;;;5044137;28;20137;-89
2021/10/31 09:18:00;;;;;;;4.75;3.25;;;;;;;;;;5040332;28;20053;-90
2021/10/31 09:20:27;;;;;;;4.35;2.90;;;;;;;;;;5036910;28;20088;-91
2021/10/31 09:22:54;;;;;;;5.28;3.00;;;;;;;;;;5040157;28;20059;-90
2021/10/31 09:25:21;;;;;;;4.32;3.20;;;;;;;;;;5041931;28;20433;-90
2021/10/31 09:27:48;;;;;;;5.30;3.38;;;;;;;;;;5046091;28;20048;-91
2021/10/31 09:30:15;;;;;;;4.85;3.20;;;;;;;;;;5027047;28;20030;-89
2021/10/31 09:32:45;;;;;;;4.15;3.08;;;;;;;;;;5028195;28;20065;-89
2021/10/31 09:35:12;;;;;;;5.93;2.90;;;;;;;;;;5047162;28;20146;-90
2021/10/31 09:37:38;;;;;;;4.15;2.58;;;;;;;;;;5042445;28;20113;-90
2021/10/31 09:40:05;;;;;;;3.80;2.80;;;;;;;;;;5050141;28;20029;-89
2021/10/31 09:42:33;;;;;;;3.85;2.80;;;;;;;;;;5037428;28;20068;-90
2021/10/31 09:45:00;;;;;;;5.32;3.20;;;;;;;;;;5030475;28;20026;-89
2021/10/31 09:47:26;;;;;;;4.90;2.90;;;;;;;;;;5034849;28;20056;-88
2021/10/31 09:49:54;;;;;;;3.65;2.70;;;;;;;;;;5042551;28;20090;-90
2021/10/31 09:52:20;;;;;;;3.78;2.80;;;;;;;;;;5027992;28;20025;-90
2021/10/31 09:54:47;;;;;;;3.78;2.78;;;;;;;;;;5055526;28;20033;-90
2021/10/31 09:57:14;;;;;;;3.92;2.92;;;;;;;;;;5042718;28;20056;-90
2021/10/31 09:59:50;;;;;;;4.03;2.42;;;;;;;;;;5048554;28;20033;-89
2021/10/31 10:05:24;;;;;;;3.72;2.53;;;;;;;;;;5027485;28;21049;-89
2021/10/31 10:08:09;;;;;;;3.40;2.53;;;;;;;;;;5049399;28;20036;-91
2021/10/31 10:10:46;;;;;;;3.28;2.58;;;;;;;;;;5043286;28;20037;-89
2021/10/31 10:13:24;;;;;;;3.90;2.55;;;;;;;;;;5061036;28;20056;-89
2021/10/31 10:15:51;;;;;;;4.43;2.60;;;;;;;;;;5045649;28;20442;-89
2021/10/31 10:18:31;;;;;;;4.57;2.70;;;;;;;;;;5053404;28;20033;-87
2021/10/31 10:21:18;;;;;;;3.90;2.67;;;;;;;;;;5030360;28;20029;-90
2021/10/31 10:23:52;;;;;;;4.60;2.47;;;;;;;;;;5034710;28;20040;-89
2021/10/31 10:26:24;;;;;;;3.13;2.20;;;;;;;;;;5050939;28;20041;-89
2021/10/31 10:28:51;;;;;;;3.05;2.28;;;;;;;;;;5043549;28;20340;-89
2021/10/31 10:31:25;;;;;;;6.13;2.80;;;;;;;;;;5048707;28;20037;-89
2021/10/31 10:33:52;;;;;;;4.28;2.70;;;;;;;;;;5049155;28;20134;-90
2021/10/31 10:36:20;;;;;;;4.05;2.58;;;;;;;;;;5048535;28;20025;-91
2021/10/31 10:39:00;;;;;;;4.25;2.55;;;;;;;;;;5034323;28;20045;-91
2021/10/31 10:41:45;;;;;;;3.50;2.60;;;;;;;;;;5046672;28;20049;-87
2021/10/31 10:44:19;;;;;;;3.88;2.35;;;;;;;;;;5054111;28;20082;-90
2021/10/31 10:46:46;;;;;;;3.67;2.20;;;;;;;;;;5051025;28;20041;-89
2021/10/31 10:49:17;;;;;;;4.07;2.50;;;;;;;;;;5046533;28;20029;-89
2021/10/31 10:51:44;;;;;;;3.65;2.35;;;;;;;;;;5047274;28;20033;-89
2021/10/31 10:54:15;;;;;;;4.05;2.20;;;;;;;;;;5047378;28;20099;-90
2021/10/31 10:57:00;;;;;;;3.42;2.10;;;;;;;;;;5050893;28;20506;-88
2021/10/31 10:59:27;;;;;;;4.45;2.50;;;;;;;;;;5023128;28;20033;-87
2021/10/31 11:02:12;;;;;;;4.07;2.22;;;;;;;;;;5049796;28;20029;-90
2021/10/31 11:04:40;;;;;;;3.13;2.00;;;;;;;;;;5036927;28;20029;-88
2021/10/31 11:07:07;;;;;;;3.70;2.00;;;;;;;;;;5043257;28;20088;-90
2021/10/31 11:09:37;;;;;;;4.00;2.35;;;;;;;;;;5044370;28;20033;-91
2021/10/31 11:12:33;;;;;;;3.60;2.08;;;;;;;;;;5047035;28;20110;-90
2021/10/31 11:15:02;;;;;;;2.60;1.80;;;;;;;;;;5028438;28;20033;-90
2021/10/31 11:17:29;;;;;;;3.95;2.13;;;;;;;;;;5048973;28;20029;-91
2021/10/31 11:19:56;;;;;;;4.50;2.28;;;;;;;;;;5050036;28;20400;-89
2021/10/31 11:22:23;;;;;;;3.35;2.10;;;;;;;;;;5045598;28;20030;-89
2021/10/31 11:24:51;;;;;;;3.67;2.10;;;;;;;;;;5047877;28;20029;-90
2021/10/31 11:27:25;;;;;;;3.58;2.10;;;;;;;;;;5065806;28;20064;-90
2021/10/31 11:29:53;;;;;;;3.53;2.00;;;;;;;;;;5046720;28;21391;-90
2021/10/31 11:32:21;;;;;;;3.55;1.98;;;;;;;;;;5035316;28;20025;-89
2021/10/31 11:34:50;;;;;;;3.50;2.10;;;;;;;;;;5043554;28;20443;-89
2021/10/31 11:37:17;;;;;;;3.42;2.17;;;;;;;;;;5047946;28;20065;-91
2021/10/31 11:39:45;;;;;;;3.25;1.80;;;;;;;;;;5035123;28;20029;-90
2021/10/31 11:42:12;;;;;;;3.75;2.17;;;;;;;;;;5046326;28;20389;-91
2021/10/31 11:44:59;;;;;;;3.00;1.92;;;;;;;;;;5051112;28;20052;-90
2021/10/31 11:47:31;;;;;;;3.85;2.05;;;;;;;;;;5046562;28;20049;-90
2021/10/31 11:50:02;;;;;;;3.13;1.70;;;;;;;;;;5040125;28;20026;-91
2021/10/31 11:52:47;;;;;;;3.47;1.90;;;;;;;;;;5040559;28;20032;-90
2021/10/31 11:55:46;;;;;;;4.47;1.95;;;;;;;;;;5035716;28;20041;-89
2021/10/31 11:58:23;;;;;;;4.43;1.92;;;;;;;;;;5040691;28;20072;-90
2021/10/31 12:00:59;;;;;;;3.38;1.75;;;;;;;;;;5049908;28;20506;-90
2021/10/31 12:03:34;;;;;;;3.63;1.98;;;;;;;;;;5024497;28;20029;-90
2021/10/31 12:06:01;;;;;;;3.15;1.80;;;;;;;;;;5051737;28;20086;-90
2021/10/31 12:08:46;;;;;;;2.90;1.75;;;;;;;;;;5052872;28;20048;-90
2021/10/31 12:11:13;;;;;;;3.33;1.85;;;;;;;;;;5050740;28;20029;-89
2021/10/31 12:13:46;;;;;;;3.08;1.77;;;;;;;;;;5043018;28;20060;-90
2021/10/31 12:16:13;;;;;;;4.00;2.00;;;;;;;;;;5033805;28;20029;-90
2021/10/31 12:18:51;;;;;;;4.38;1.70;;;;;;;;;;5029854;28;20021;-90
2021/10/31 12:21:23;;;;;;;3.33;1.58;;;;;;;;;;5031823;28;20029;-91
2021/10/31 12:23:52;;;;;;;3.17;1.90;;;;;;;;;;5043658;28;20033;-91
2021/10/31 12:26:19;;;;;;;5.97;1.80;;;;;;;;;;5049597;28;20056;-89
2021/10/31 12:28:46;;;;;;;3.28;1.73;;;;;;;;;;5042136;28;20121;-90
2021/10/31 12:31:26;;;;;;;3.83;2.00;;;;;;;;;;5045757;28;20037;-88
2021/10/31 12:34:08;;;;;;;2.38;1.50;;;;;;;;;;5041619;28;20029;-88
2021/10/31 12:36:36;;;;;;;3.38;1.95;;;;;;;;;;5052428;28;20033;-89
2021/10/31 12:39:04;;;;;;;3.67;2.15;;;;;;;;;;5048537;28;20562;-90
2021/10/31 12:41:34;;;;;;;2.42;1.40;;;;;;;;;;5027209;28;20542;-89
2021/10/31 12:44:13;;;;;;;2.55;1.70;;;;;;;;;;5043469;28;20104;-89
2021/10/31 12:46:40;;;;;;;3.30;1.90;;;;;;;;;;5040648;28;20061;-88
2021/10/31 12:49:07;;;;;;;3.65;1.75;;;;;;;;;;5046374;28;20061;-89
2021/10/31 12:51:38;;;;;;;3.15;1.80;;;;;;;;;;5038106;28;20461;-88
2021/10/31 12:54:10;;;;;;;2.78;1.70;;;;;;;;;;5041751;28;20496;-89
2021/10/31 12:56:36;;;;;;;3.60;1.80;;;;;;;;;;5041721;28;20134;-88
2021/10/31 12:59:07;;;;;;;3.38;1.65;;;;;;;;;;5045668;28;20110;-89
2021/10/31 13:01:33;;;;;;;3.22;1.65;;;;;;;;;;5044380;28;20040;-88
2021/10/31 13:04:07;;;;;;;4.50;1.80;;;;;;;;;;5045499;28;20029;-90
2021/10/31 13:06:52;;;;;;;4.03;2.00;;;;;;;;;;5045908;28;20076;-88
2021/10/31 13:09:19;;;;;;;2.67;1.77;;;;;;;;;;5021279;28;20033;-89
2021/10/31 13:11:45;;;;;;;3.67;1.65;;;;;;;;;;5036893;28;20037;-89
2021/10/31 13:14:28;;;;;;;2.92;1.70;;;;;;;;;;5027955;28;20061;-89
2021/10/31 13:17:05;;;;;;;3.33;1.92;;;;;;;;;;5023102;28;20032;-89
2021/10/31 13:19:35;;;;;;;3.35;1.77;;;;;;;;;;5035138;28;20029;-89
2021/10/31 13:22:03;;;;;;;3.63;1.90;;;;;;;;;;5041088;28;20087;-89
2021/10/31 13:24:31;;;;;;;4.63;2.10;;;;;;;;;;5044911;28;20030;-88
2021/10/31 13:26:58;;;;;;;3.78;1.80;;;;;;;;;;5022452;28;20117;-87
2021/10/31 13:29:45;;;;;;;2.95;1.83;;;;;;;;;;5045395;28;20057;-89
2021/10/31 13:32:18;;;;;;;2.83;1.77;;;;;;;;;;5040514;28;20344;-88
2021/10/31 13:34:46;;;;;;;3.30;1.80;;;;;;;;;;5042072;28;20056;-88
2021/10/31 13:37:13;;;;;;;2.63;1.80;;;;;;;;;;5038089;28;20060;-88
2021/10/31 13:39:40;;;;;;;3.47;1.80;;;;;;;;;;5043606;28;20037;-88
2021/10/31 13:42:10;;;;;;;3.42;1.77;;;;;;;;;;5037065;28;20037;-87
2021/10/31 13:44:38;;;;;;;5.15;2.00;;;;;;;;;;5039702;28;20053;-88
2021/10/31 13:47:27;;;;;;;2.72;1.80;;;;;;;;;;5043213;28;20072;-87
2021/10/31 13:49:54;;;;;;;2.45;1.60;;;;;;;;;;5050991;28;20346;-88
2021/10/31 13:52:21;;;;;;;2.83;1.70;;;;;;;;;;5038452;28;20036;-89
2021/10/31 13:54:48;;;;;;;3.58;1.75;;;;;;;;;;5041653;28;20526;-86
2021/10/31 13:57:18;;;;;;;2.90;1.80;;;;;;;;;;5045980;28;20088;-87
2021/10/31 13:59:48;;;;;;;2.70;1.52;;;;;;;;;;5050357;28;20573;-87
2021/10/31 14:02:15;;;;;;;3.53;1.90;;;;;;;;;;5041739;28;20095;-88
2021/10/31 14:04:42;;;;;;;2.67;1.88;;;;;;;;;;5048424;28;20033;-88
2021/10/31 14:07:12;;;;;;;2.95;1.70;;;;;;;;;;5047788;28;20522;-88
2021/10/31 14:09:49;;;;;;;2.40;1.60;;;;;;;;;;5051746;28;20487;-88
2021/10/31 14:12:23;;;;;;;3.22;1.90;;;;;;;;;;5048405;28;20496;-89
2021/10/31 14:15:02;;;;;;;2.63;1.63;;;;;;;;;;5047732;28;20045;-88
2021/10/31 14:17:28;;;;;;;3.35;1.50;;;;;;;;;;5038180;28;20570;-87
2021/10/31 14:19:57;;;;;;;3.67;2.00;;;;;;;;;;5030117;28;20065;-89
2021/10/31 14:22:25;;;;;;;2.72;1.77;;;;;;;;;;5044065;28;20084;-88
2021/10/31 14:24:57;;;;;;;2.60;1.60;;;;;;;;;;5050363;28;20036;-88
2021/10/31 14:27:25;;;;;;;3.95;2.10;;;;;;;;;;5045018;28;20061;-87
2021/10/31 14:29:52;;;;;;;3.40;2.08;;;;;;;;;;5041313;28;20057;-88
2021/10/31 14:32:18;;;;;;;3.58;1.95;;;;;;;;;;5050594;28;20087;-87
2021/10/31 14:35:01;;;;;;;3.63;1.70;;;;;;;;;;5043112;28;20111;-88
2021/10/31 14:37:28;;;;;;;2.65;1.85;;;;;;;;;;5047326;28;20049;-83
2021/10/31 14:39:55;;;;;;;3.13;1.77;;;;;;;;;;5046270;28;20052;-89
2021/10/31 14:42:31;;;;;;;2.70;1.70;;;;;;;;;;5041153;28;20033;-88
2021/10/31 14:45:00;;;;;;;2.50;1.58;;;;;;;;;;5045242;28;20055;-88
2021/10/31 14:47:30;;;;;;;2.55;1.80;;;;;;;;;;5047594;28;20076;-89
2021/10/31 14:50:09;;;;;;;2.80;1.70;;;;;;;;;;5045112;28;21462;-88
2021/10/31 14:52:36;;;;;;;3.33;1.70;;;;;;;;;;5040551;28;20061;-87
2021/10/31 14:55:10;;;;;;;3.17;1.52;;;;;;;;;;5051546;28;20053;-89